Terminal Aerodrome Forecast
Issued by NWS

Home | Current Version | Previous Version | Text Only | Print | Product List | Glossary On
Versions: 1 2 3 4 5 6 7 8 9 10 11 12 13 14 15 16
000
FTUS45 KLKN 211735
TAFWMC
TAF
KWMC 211735Z 2118/2218 18005KT P6SM FEW060 BKN150
     FM212100 19008KT P6SM BKN060
     FM220400 17012G18KT 5SM -SN SCT030 OVC040
     FM221100 19008KT P6SM VCSH SCT025 OVC035
     FM221700 26005KT P6SM FEW030 BKN040=

USA.gov is the U.S. government's official web portal to all federal, state and local government web resources and services.